createdAt,value
2022-12-13T00:02:07.319Z,7.07
2022-12-13T00:07:12.382Z,5.65
2022-12-13T00:12:16.631Z,6.80
2022-12-13T00:17:20.191Z,7.95
2022-12-13T00:22:24.925Z,5.30
2022-12-13T00:27:28.491Z,6.47
2022-12-13T00:32:32.063Z,6.00
2022-12-13T00:37:37.070Z,5.05
2022-12-13T00:47:43.530Z,7.03
2022-12-13T00:52:48.427Z,6.70
2022-12-13T00:57:52.051Z,6.90
2022-12-13T01:02:55.565Z,8.38
2022-12-13T01:08:00.544Z,7.80
2022-12-13T01:13:03.890Z,9.70
2022-12-13T01:18:07.553Z,9.32
2022-12-13T01:23:12.297Z,9.18
2022-12-13T01:28:15.861Z,11.07
2022-12-13T01:33:19.317Z,9.18
2022-12-13T01:38:26.215Z,9.18
2022-12-13T01:43:50.982Z,11.30
2022-12-13T01:48:59.891Z,7.63
2022-12-13T01:54:07.726Z,9.32
2022-12-13T01:59:14.263Z,10.23
2022-12-13T02:04:22.272Z,11.00
2022-12-13T02:09:28.037Z,7.75
2022-12-13T02:14:31.589Z,8.88
2022-12-13T02:20:31.090Z,9.57
2022-12-13T02:25:54.980Z,8.50
2022-12-13T02:31:07.717Z,9.93
2022-12-13T02:36:18.951Z,10.65
2022-12-13T02:42:21.316Z,9.73
2022-12-13T02:48:22.222Z,8.15
2022-12-13T02:53:27.003Z,10.30
2022-12-13T02:58:34.561Z,12.35
2022-12-13T03:03:47.437Z,11.50
2022-12-13T03:08:58.439Z,15.00
2022-12-13T03:14:09.091Z,13.32
2022-12-13T03:19:15.303Z,13.60
2022-12-13T03:24:20.441Z,13.07
2022-12-13T03:29:25.093Z,12.30
2022-12-13T03:34:43.697Z,13.55
2022-12-13T03:39:49.312Z,13.40
2022-12-13T03:44:52.801Z,16.67
2022-12-13T03:49:57.919Z,12.25
2022-12-13T03:55:21.328Z,13.13
2022-12-13T04:00:25.208Z,11.85
2022-12-13T04:05:30.783Z,14.33
2022-12-13T04:10:35.658Z,14.00
2022-12-13T04:20:43.975Z,11.93
2022-12-13T04:25:47.649Z,14.20
2022-12-13T04:30:53.693Z,15.93
2022-12-13T04:35:58.772Z,14.20
2022-12-13T04:41:09.934Z,14.10
2022-12-13T04:46:13.349Z,13.52
2022-12-13T04:51:18.795Z,12.15
2022-12-13T04:56:22.343Z,11.82
2022-12-13T05:01:26.030Z,14.20
2022-12-13T05:06:31.309Z,16.13
2022-12-13T05:11:35.499Z,13.40
2022-12-13T05:16:39.695Z,15.82
2022-12-13T05:21:44.758Z,11.15
2022-12-13T05:31:51.679Z,11.18
2022-12-13T05:36:56.847Z,11.70
2022-12-13T05:42:02.715Z,13.95
2022-12-13T05:47:06.680Z,11.05
2022-12-13T05:52:19.017Z,9.77
2022-12-13T05:57:22.599Z,10.40
2022-12-13T06:02:26.018Z,15.90
2022-12-13T06:07:31.222Z,11.80
2022-12-13T06:17:47.009Z,13.55
2022-12-13T06:22:51.774Z,12.65
2022-12-13T06:27:55.424Z,14.90
2022-12-13T06:32:58.897Z,12.20
2022-12-13T06:38:03.903Z,15.77
2022-12-13T06:43:15.902Z,17.30
2022-12-13T06:48:20.425Z,14.68
2022-12-13T06:53:25.722Z,17.42
2022-12-13T06:58:29.281Z,18.77
2022-12-13T07:03:33.033Z,17.23
2022-12-13T07:08:38.309Z,21.50
2022-12-13T07:13:41.705Z,16.77
2022-12-13T07:18:45.224Z,21.33
2022-12-13T07:23:54.878Z,20.85
2022-12-13T07:28:59.211Z,23.58
2022-12-13T07:34:02.791Z,14.77
2022-12-13T07:39:07.740Z,12.65
2022-12-13T07:49:14.247Z,14.45
2022-12-13T07:54:19.185Z,16.83
2022-12-13T07:59:28.364Z,12.05
2022-12-13T08:04:38.125Z,10.38
2022-12-13T08:09:49.525Z,11.38
2022-12-13T08:14:56.014Z,6.22
2022-12-13T08:19:59.403Z,6.38
2022-12-13T08:25:04.673Z,3.58
2022-12-13T08:30:09.515Z,3.53
2022-12-13T08:35:13.036Z,3.95
2022-12-13T08:40:18.258Z,3.20
2022-12-13T08:45:21.767Z,4.70
2022-12-13T08:50:25.274Z,7.78
2022-12-13T08:55:32.230Z,4.07
2022-12-13T09:00:36.776Z,4.53
2022-12-13T09:05:40.282Z,3.67
2022-12-13T09:10:46.191Z,3.72
2022-12-13T09:15:49.662Z,4.95
2022-12-13T09:20:53.583Z,5.53
2022-12-13T09:26:17.502Z,2.88
2022-12-13T09:31:21.595Z,4.43
2022-12-13T09:36:26.445Z,4.35
2022-12-13T09:41:41.071Z,4.20
2022-12-13T09:46:47.464Z,5.20
2022-12-13T09:52:11.683Z,6.45
2022-12-13T09:57:31.925Z,6.10
2022-12-13T10:02:43.800Z,8.35
2022-12-13T10:07:47.619Z,9.95
2022-12-13T10:12:59.176Z,11.52
2022-12-13T10:18:05.911Z,8.80
2022-12-13T10:23:33.111Z,13.48
2022-12-13T10:28:35.300Z,11.63
2022-12-13T10:33:46.330Z,11.52
2022-12-13T10:38:50.996Z,11.48
2022-12-13T10:44:23.143Z,11.82
2022-12-13T10:49:29.487Z,13.15
2022-12-13T10:54:38.825Z,10.68
2022-12-13T10:59:53.980Z,12.18
2022-12-13T11:04:59.011Z,10.30
2022-12-13T11:10:23.681Z,11.52
2022-12-13T11:15:34.874Z,13.00
2022-12-13T11:20:39.716Z,12.35
2022-12-13T11:25:45.206Z,11.40
2022-12-13T11:31:01.490Z,10.95
2022-12-13T11:36:17.483Z,12.73
2022-12-13T11:41:31.367Z,13.82
2022-12-13T11:46:42.244Z,12.68
2022-12-13T11:51:50.429Z,14.73
2022-12-13T11:57:00.611Z,10.07
2022-12-13T12:02:16.422Z,11.32
2022-12-13T12:07:32.862Z,11.60
2022-12-13T12:12:39.179Z,11.05
2022-12-13T12:17:44.356Z,11.93
2022-12-13T12:22:54.532Z,9.80
2022-12-13T12:28:07.005Z,11.75
2022-12-13T12:33:22.461Z,11.70
2022-12-13T12:38:48.112Z,12.63
2022-12-13T12:43:57.743Z,12.35
2022-12-13T12:49:34.433Z,13.43
2022-12-13T12:54:45.547Z,13.55
2022-12-13T13:00:03.647Z,11.20
2022-12-13T13:05:20.660Z,11.57
2022-12-13T13:10:26.824Z,11.82
2022-12-13T13:15:56.637Z,13.18
2022-12-13T13:21:42.127Z,11.57
2022-12-13T13:26:49.257Z,11.23
2022-12-13T13:32:02.109Z,11.55
2022-12-13T13:37:06.737Z,11.32
2022-12-13T13:42:19.503Z,12.57
2022-12-13T13:47:42.155Z,11.70
2022-12-13T13:52:58.883Z,11.98
2022-12-13T13:58:29.152Z,11.30
2022-12-13T14:04:06.190Z,12.65
2022-12-13T14:09:49.527Z,12.45
2022-12-13T14:15:34.242Z,11.32
2022-12-13T14:20:46.928Z,13.13
2022-12-13T14:26:05.955Z,15.38
2022-12-13T14:31:22.059Z,13.98
2022-12-13T14:36:32.553Z,14.48
2022-12-13T14:41:47.241Z,14.93
2022-12-13T14:46:55.217Z,15.77
2022-12-13T14:52:03.923Z,16.33
2022-12-13T14:57:07.951Z,15.55
2022-12-13T15:02:18.738Z,17.90
2022-12-13T15:07:39.092Z,15.65
2022-12-13T15:12:43.560Z,15.00
2022-12-13T15:17:48.638Z,15.90
2022-12-13T15:23:00.086Z,14.93
2022-12-13T15:28:04.437Z,14.82
2022-12-13T15:33:19.384Z,13.65
2022-12-13T15:38:28.761Z,15.70
2022-12-13T15:43:38.908Z,17.08
2022-12-13T15:48:48.153Z,16.80
2022-12-13T15:54:08.071Z,16.73
2022-12-13T15:59:27.218Z,18.17
2022-12-13T16:04:34.105Z,17.55
2022-12-13T16:09:39.896Z,17.30
2022-12-13T16:14:53.459Z,17.45
2022-12-13T16:20:16.593Z,16.77
2022-12-13T16:25:20.907Z,15.88
2022-12-13T16:30:26.902Z,17.10
2022-12-13T16:35:31.871Z,17.70
2022-12-13T16:40:36.038Z,17.50
2022-12-13T16:45:43.166Z,18.43
2022-12-13T16:50:57.700Z,16.92
2022-12-13T16:56:01.739Z,21.67
2022-12-13T17:01:10.465Z,20.73
2022-12-13T17:06:18.150Z,21.77
2022-12-13T17:11:21.883Z,22.50
2022-12-13T17:16:25.584Z,22.92
2022-12-13T17:21:30.765Z,23.88
2022-12-13T17:26:35.476Z,23.80
2022-12-13T17:31:39.702Z,22.60
2022-12-13T17:36:45.175Z,23.02
2022-12-13T17:41:54.444Z,22.00
2022-12-13T17:46:59.471Z,22.63
2022-12-13T17:52:04.564Z,19.83
2022-12-13T17:57:10.633Z,24.15
2022-12-13T18:02:15.079Z,21.83
2022-12-13T18:07:20.397Z,23.20
2022-12-13T18:12:23.781Z,23.90
2022-12-13T18:17:46.562Z,22.42
2022-12-13T18:22:52.319Z,22.95
2022-12-13T18:33:05.605Z,21.42
2022-12-13T18:38:10.959Z,20.67
2022-12-13T18:43:14.438Z,20.88
2022-12-13T18:48:18.123Z,22.05
2022-12-13T18:53:23.306Z,21.88
2022-12-13T18:58:27.223Z,22.55
2022-12-13T19:03:31.148Z,20.52
2022-12-13T19:08:36.937Z,22.73
2022-12-13T19:13:40.516Z,20.55
2022-12-13T19:18:44.680Z,23.55
2022-12-13T19:23:56.479Z,24.50
2022-12-13T19:29:01.214Z,27.55
2022-12-13T19:34:04.792Z,24.00
2022-12-13T19:39:11.636Z,25.75
2022-12-13T19:44:15.559Z,22.65
2022-12-13T19:49:19.388Z,23.40
2022-12-13T19:54:26.121Z,22.85
2022-12-13T19:59:29.836Z,23.58
2022-12-13T20:04:33.569Z,23.75
2022-12-13T20:09:39.785Z,23.25
2022-12-13T20:14:43.304Z,23.17
2022-12-13T20:19:47.192Z,24.75
2022-12-13T20:24:52.995Z,25.65
2022-12-13T20:35:00.236Z,24.77
2022-12-13T20:40:05.801Z,22.90
2022-12-13T20:45:11.006Z,23.65
2022-12-13T20:50:15.655Z,20.83
2022-12-13T20:55:21.152Z,24.83
2022-12-13T21:00:25.446Z,22.25
2022-12-13T21:05:29.007Z,18.23
2022-12-13T21:10:34.061Z,10.98
2022-12-13T21:15:37.636Z,12.05
2022-12-13T21:20:41.340Z,10.05
2022-12-13T21:25:46.210Z,9.43
2022-12-13T21:30:52.061Z,8.90
2022-12-13T21:35:55.747Z,11.13
2022-12-13T21:41:00.824Z,11.25
2022-12-13T21:46:06.481Z,11.88
2022-12-13T21:51:13.387Z,12.15
2022-12-13T21:56:38.854Z,12.75
2022-12-13T22:02:03.248Z,11.63
2022-12-13T22:07:08.407Z,12.45
2022-12-13T22:12:21.105Z,13.98
2022-12-13T22:17:33.060Z,14.85
2022-12-13T22:22:40.428Z,11.68
2022-12-13T22:27:45.547Z,10.60
2022-12-13T22:32:49.050Z,13.02
2022-12-13T22:37:54.297Z,13.93
2022-12-13T22:43:01.450Z,12.00
2022-12-13T22:48:05.735Z,11.97
2022-12-13T22:53:09.147Z,12.10
2022-12-13T22:58:14.186Z,11.87
2022-12-13T23:03:17.615Z,12.50
2022-12-13T23:08:21.299Z,11.75
2022-12-13T23:13:26.194Z,11.93
2022-12-13T23:18:30.213Z,13.10
2022-12-13T23:23:34.246Z,12.40
2022-12-13T23:28:40.906Z,13.27
2022-12-13T23:33:46.463Z,11.13
2022-12-13T23:38:50.665Z,11.70
2022-12-13T23:43:57.867Z,10.20
2022-12-13T23:49:02.610Z,10.52
2022-12-13T23:59:11.183Z,10.57
